Atlantic Elm — 9HA3054 — position and weather

sailwx.info

Track history (hours):
 
Tides and Currents Weather Stations Pressure Air Temp Water Temp Dewpoint Dewpoint Depression Visibility Wind Speed Wind Dir Waves Ship Positions

Atlantic Elm

Last reported at 2015-Aug-04 03:26 UTC. Time now 2015-Aug-04 05:21 UTC.
Position N 37°00' W 009°43'.

Length 190 m; draft 11.9 m.

Type: Ship. MMSI: 229081000.

Date/timePositionNaut miles runAvg speedWind from/ knotsBaromVisibWave heightAir tempDewpointWater temp
2015-Aug-04 03:26N 37°00' W 009°43'3311.3
2015-Aug-04 00:32N 37°06' W 010°23'1312.1
2015-Aug-03 23:30N 37°07' W 010°39'1211.7
2015-Aug-03 22:31N 37°08' W 010°53'1212.0
2015-Aug-03 21:32N 37°10' W 011°08'1111.6
2015-Aug-03 20:33N 37°11' W 011°22'1211.3
2015-Aug-03 19:31N 37°12' W 011°37'2411.4
2015-Aug-03 17:23N 37°14' W 012°07'45611.9
2015-Aug-02 03:11N 37°33' W 021°41'1911.9
2015-Aug-02 01:33N 37°33' W 022°06'1211.8
2015-Aug-02 00:31N 37°33' W 022°21'1212.2
2015-Aug-01 23:33N 37°32' W 022°36'1312.2
2015-Aug-01 22:27N 37°32' W 022°53'1212.1
2015-Aug-01 21:27N 37°32' W 023°08'1112.0
2015-Aug-01 20:31N 37°31' W 023°22'1212.1
2015-Aug-01 19:33N 37°31' W 023°37'1211.9
2015-Aug-01 18:33N 37°31' W 023°52'1211.8
2015-Aug-01 17:34N 37°30' W 024°06'1211.9
2015-Aug-01 16:34N 37°29' W 024°21'1212.1
2015-Aug-01 15:33N 37°29' W 024°37'1212.3
2015-Aug-01 14:33N 37°28' W 024°52'1212.2
2015-Aug-01 13:34N 37°28' W 025°07'1211.9
2015-Aug-01 12:34N 37°28' W 025°22'1212.5
2015-Aug-01 11:33N 37°28' W 025°38'1211.9
2015-Aug-01 10:34N 37°28' W 025°53'1211.9
2015-Aug-01 09:33N 37°28' W 026°08'1211.8
2015-Aug-01 08:34N 37°28' W 026°23'1211.6
2015-Aug-01 07:33N 37°28' W 026°38'1111.3
2015-Aug-01 06:34N 37°28' W 026°52'1111.5
2015-Aug-01 05:33N 37°28' W 027°06'1211.8
2015-Aug-01 04:33N 37°28' W 027°21'1211.8
2015-Aug-01 03:34N 37°28' W 027°36'1111.5
2015-Aug-01 02:33N 37°28' W 027°50'1211.7
2015-Aug-01 01:33N 37°27' W 028°05'1212.4
2015-Aug-01 00:34N 37°27' W 028°21'1211.7
2015-Jul-31 23:33N 37°27' W 028°36'1211.8
2015-Jul-31 22:33N 37°27' W 028°50'1211.8
2015-Jul-31 21:34N 37°26' W 029°05'1211.9
2015-Jul-31 20:33N 37°26' W 029°20'1211.9
2015-Jul-31 19:34N 37°25' W 029°35'1211.9
2015-Jul-31 18:33N 37°25' W 029°50'  
Track history (hours):
 
Tides and Currents Weather Stations Pressure Air Temp Water Temp Dewpoint Dewpoint Depression Visibility Wind Speed Wind Dir Waves Ship Positions

Atlantic Elm

Last reported at 2015-Aug-04 03:26 UTC. Time now 2015-Aug-04 05:21 UTC.
Position N 37°00' W 009°43'.

Length 190 m; draft 11.9 m.

Type: Ship. MMSI: 229081000.

Date/timePositionNaut miles runAvg speedWind from/ knotsBaromVisibWave heightAir tempDewpointWater temp
2015-Aug-04 03:26N 37°00' W 009°43'3311.3
2015-Aug-04 00:32N 37°06' W 010°23'1312.1
2015-Aug-03 23:30N 37°07' W 010°39'1211.7
2015-Aug-03 22:31N 37°08' W 010°53'1212.0
2015-Aug-03 21:32N 37°10' W 011°08'1111.6
2015-Aug-03 20:33N 37°11' W 011°22'1211.3
2015-Aug-03 19:31N 37°12' W 011°37'2411.4
2015-Aug-03 17:23N 37°14' W 012°07'45611.9
2015-Aug-02 03:11N 37°33' W 021°41'1911.9
2015-Aug-02 01:33N 37°33' W 022°06'1211.8
2015-Aug-02 00:31N 37°33' W 022°21'1212.2
2015-Aug-01 23:33N 37°32' W 022°36'1312.2
2015-Aug-01 22:27N 37°32' W 022°53'1212.1
2015-Aug-01 21:27N 37°32' W 023°08'1112.0
2015-Aug-01 20:31N 37°31' W 023°22'1212.1
2015-Aug-01 19:33N 37°31' W 023°37'1211.9
2015-Aug-01 18:33N 37°31' W 023°52'1211.8
2015-Aug-01 17:34N 37°30' W 024°06'1211.9
2015-Aug-01 16:34N 37°29' W 024°21'1212.1
2015-Aug-01 15:33N 37°29' W 024°37'1212.3
2015-Aug-01 14:33N 37°28' W 024°52'1212.2
2015-Aug-01 13:34N 37°28' W 025°07'1211.9
2015-Aug-01 12:34N 37°28' W 025°22'1212.5
2015-Aug-01 11:33N 37°28' W 025°38'1211.9
2015-Aug-01 10:34N 37°28' W 025°53'1211.9
2015-Aug-01 09:33N 37°28' W 026°08'1211.8
2015-Aug-01 08:34N 37°28' W 026°23'1211.6
2015-Aug-01 07:33N 37°28' W 026°38'1111.3
2015-Aug-01 06:34N 37°28' W 026°52'1111.5
2015-Aug-01 05:33N 37°28' W 027°06'1211.8
2015-Aug-01 04:33N 37°28' W 027°21'1211.8
2015-Aug-01 03:34N 37°28' W 027°36'1111.5
2015-Aug-01 02:33N 37°28' W 027°50'1211.7
2015-Aug-01 01:33N 37°27' W 028°05'1212.4
2015-Aug-01 00:34N 37°27' W 028°21'1211.7
2015-Jul-31 23:33N 37°27' W 028°36'1211.8
2015-Jul-31 22:33N 37°27' W 028°50'1211.8
2015-Jul-31 21:34N 37°26' W 029°05'1211.9
2015-Jul-31 20:33N 37°26' W 029°20'1211.9
2015-Jul-31 19:34N 37°25' W 029°35'1211.9
2015-Jul-31 18:33N 37°25' W 029°50'  

Dump ship's entire track history